Time;durP1;ratioP1;P1;durP2;ratioP2;P2;SDS_P1;SDS_P2;PMS_P1;PMS_P2;Temp;Humidity;BMP_temperature;BMP_pressure;BME280_temperature;BME280_humidity;BME280_pressure;Samples;Min_cycle;Max_cycle;Signal;HPM_P1;HPM_P2
2022/08/17 00:00:39;;;;;;;6.00;4.55;;;;;;;24.51;65.64;97756.16;5095111;28;20561;-58
2022/08/17 00:03:08;;;;;;;6.75;4.80;;;;;;;24.46;65.98;97768.34;5095036;28;20171;-57
2022/08/17 00:05:39;;;;;;;5.78;4.90;;;;;;;24.44;65.89;97760.63;5094949;28;20193;-58
2022/08/17 00:08:05;;;;;;;4.75;4.35;;;;;;;24.49;65.17;97770.59;5095426;28;20183;-58
2022/08/17 00:10:30;;;;;;;5.72;4.25;;;;;;;24.37;65.13;97759.84;5095171;28;20232;-58
2022/08/17 00:12:56;;;;;;;5.30;4.72;;;;;;;24.44;65.20;97760.63;5095138;28;20607;-58
2022/08/17 00:15:22;;;;;;;7.82;4.78;;;;;;;24.37;65.60;97773.06;5094912;28;20250;-58
2022/08/17 00:17:49;;;;;;;5.47;4.40;;;;;;;24.32;65.73;97766.78;5095030;28;20174;-57
2022/08/17 00:20:16;;;;;;;6.63;4.93;;;;;;;24.25;66.22;97756.19;5094705;28;20183;-57
2022/08/17 00:22:41;;;;;;;8.15;5.15;;;;;;;24.15;67.69;97755.81;5094622;28;20270;-57
2022/08/17 00:25:14;;;;;;;6.13;4.50;;;;;;;24.14;67.85;97754.19;5076498;28;20175;-58
2022/08/17 00:27:40;;;;;;;4.78;4.38;;;;;;;24.03;68.57;97743.44;5094753;28;20210;-58
2022/08/17 00:30:09;;;;;;;6.65;5.05;;;;;;;24.01;68.46;97763.94;5094522;28;20664;-57
2022/08/17 00:32:44;;;;;;;7.35;4.93;;;;;;;24.08;67.65;97753.38;5094428;28;20171;-57
2022/08/17 00:35:12;;;;;;;9.73;4.65;;;;;;;24.12;66.86;97762.53;5094734;28;20159;-57
2022/08/17 00:37:38;;;;;;;6.75;4.07;;;;;;;24.17;65.31;97755.59;5094649;28;20176;-57
2022/08/17 00:40:05;;;;;;;6.50;4.30;;;;;;;24.29;62.44;97752.13;5094864;28;20176;-57
2022/08/17 00:42:30;;;;;;;6.70;4.25;;;;;;;24.42;62.53;97757.38;5094250;28;20183;-57
2022/08/17 00:44:56;;;;;;;4.80;3.92;;;;;;;24.51;63.60;97756.16;5094238;28;20168;-57
2022/08/17 00:47:21;;;;;;;5.28;4.75;;;;;;;24.58;64.34;97761.44;5094139;28;20175;-57
2022/08/17 00:49:47;;;;;;;4.85;4.35;;;;;;;24.45;65.23;97753.50;5094121;28;20168;-57
2022/08/17 00:52:17;;;;;;;5.88;4.32;;;;;;;24.41;65.31;97755.75;5093928;28;20322;-57
2022/08/17 00:54:47;;;;;;;4.95;4.45;;;;;;;24.29;65.51;97764.53;5094279;28;20160;-58
2022/08/17 00:57:25;;;;;;;4.93;4.35;;;;;;;24.15;65.71;97765.59;5094890;28;20241;-56
2022/08/17 01:00:00;;;;;;;4.32;4.03;;;;;;;24.09;65.88;97761.91;5093927;28;20167;-57
2022/08/17 01:02:26;;;;;;;7.13;4.50;;;;;;;24.09;65.20;97764.56;5094218;28;20159;-57
2022/08/17 01:04:55;;;;;;;5.75;4.07;;;;;;;24.05;65.35;97765.19;5094385;28;20199;-57
2022/08/17 01:07:24;;;;;;;6.18;4.20;;;;;;;24.01;64.84;97750.75;5093689;28;20660;-57
2022/08/17 01:09:50;;;;;;;4.68;4.28;;;;;;;24.08;65.01;97760.28;5093783;28;20532;-57
2022/08/17 01:12:15;;;;;;;5.53;4.32;;;;;;;24.06;65.07;97760.72;5093651;28;20256;-57
2022/08/17 01:14:41;;;;;;;7.68;4.35;;;;;;;24.06;65.30;97763.34;5093965;28;20218;-57
2022/08/17 01:17:07;;;;;;;4.50;4.10;;;;;;;24.00;65.63;97764.97;5093649;28;20176;-56
2022/08/17 01:19:37;;;;;;;4.03;3.72;;;;;;;24.01;65.50;97768.44;5075384;28;20554;-56
2022/08/17 01:22:15;;;;;;;6.82;4.30;;;;;;;24.08;65.32;97769.25;5093802;28;20156;-56
2022/08/17 01:24:50;;;;;;;4.60;3.92;;;;;;;24.12;64.66;97757.25;5093694;28;20586;-57
2022/08/17 01:27:16;;;;;;;5.85;4.00;;;;;;;24.17;64.81;97753.78;5092771;28;20159;-57
2022/08/17 01:29:45;;;;;;;4.32;3.80;;;;;;;24.14;64.88;97759.47;5093606;28;20237;-57
2022/08/17 01:32:11;;;;;;;5.13;4.00;;;;;;;24.09;64.78;97753.97;5093573;28;20258;-56
2022/08/17 01:34:37;;;;;;;5.85;3.85;;;;;;;24.12;64.78;97744.03;5093268;28;20176;-57
2022/08/17 01:37:03;;;;;;;5.38;4.95;;;;;;;24.12;64.68;97754.59;5093250;28;20174;-57
2022/08/17 01:39:30;;;;;;;7.32;4.35;;;;;;;24.18;64.12;97742.19;5093191;28;20644;-57
2022/08/17 01:42:19;;;;;;;7.00;4.82;;;;;;;24.16;64.54;97746.06;5093159;28;20172;-57
2022/08/17 01:44:44;;;;;;;5.53;4.65;;;;;;;24.03;65.49;97736.31;5093692;28;20175;-57
2022/08/17 01:47:09;;;;;;;4.35;3.90;;;;;;;24.01;65.76;97742.00;5093316;28;20535;-57
2022/08/17 01:49:35;;;;;;;6.68;4.13;;;;;;;23.95;65.76;97732.25;5093152;28;20300;-57
2022/08/17 01:52:09;;;;;;;4.90;4.38;;;;;;;23.91;65.82;97729.22;5092887;28;20223;-57
2022/08/17 01:54:38;;;;;;;4.40;4.00;;;;;;;23.89;65.48;97728.59;5093185;28;20164;-56
2022/08/17 01:57:04;;;;;;;4.32;3.92;;;;;;;23.89;65.26;97728.59;5093140;28;20206;-57
2022/08/17 01:59:30;;;;;;;4.30;3.85;;;;;;;23.89;64.67;97718.03;5093059;28;20182;-57
2022/08/17 02:01:55;;;;;;;6.13;4.07;;;;;;;23.91;64.03;97726.56;5092794;28;20563;-57
2022/08/17 02:04:21;;;;;;;4.10;3.72;;;;;;;24.03;63.64;97720.44;5092723;28;20186;-56
2022/08/17 02:06:46;;;;;;;4.22;3.83;;;;;;;23.90;62.80;97692.41;5092656;28;20535;-57
2022/08/17 02:09:13;;;;;;;5.10;3.92;;;;;;;24.14;63.13;97719.03;5092812;28;20191;-57
2022/08/17 02:11:38;;;;;;;3.65;3.35;;;;;;;24.13;63.00;97715.56;5092857;28;20176;-58
2022/08/17 02:14:09;;;;;;;4.97;3.88;;;;;;;24.18;62.58;97723.69;5092843;28;20536;-58
2022/08/17 02:16:37;;;;;;;4.55;4.15;;;;;;;24.23;62.19;97727.53;5092576;28;20164;-58
2022/08/17 02:19:05;;;;;;;6.25;3.90;;;;;;;24.25;62.27;97724.47;5092467;28;20172;-57
2022/08/17 02:21:31;;;;;;;4.85;4.38;;;;;;;24.18;63.28;97718.38;5092717;28;20674;-58
2022/08/17 02:23:57;;;;;;;8.10;3.95;;;;;;;24.13;63.41;97725.31;5092645;28;20267;-57
2022/08/17 02:26:22;;;;;;;5.43;4.28;;;;;;;24.17;64.63;97723.09;5092302;28;20172;-58
2022/08/17 02:28:48;;;;;;;4.05;3.60;;;;;;;24.05;64.76;97712.31;5092284;28;20278;-58
2022/08/17 02:31:13;;;;;;;5.05;4.18;;;;;;;24.02;64.96;97733.06;5092524;28;20205;-58
2022/08/17 02:33:39;;;;;;;8.13;4.30;;;;;;;23.91;65.44;97721.28;5092527;28;20168;-58
2022/08/17 02:36:07;;;;;;;5.68;4.03;;;;;;;23.85;65.64;97733.44;5092554;28;20183;-55
2022/08/17 02:38:34;;;;;;;4.70;4.07;;;;;;;23.88;65.29;97731.47;5091560;28;20176;-56
2022/08/17 02:40:59;;;;;;;6.05;4.45;;;;;;;23.75;65.25;97717.19;5092198;28;20171;-56
2022/08/17 02:43:27;;;;;;;4.72;4.22;;;;;;;23.75;66.19;97714.53;5092292;28;20180;-56
2022/08/17 02:45:53;;;;;;;5.28;4.30;;;;;;;23.80;66.80;97727.94;5092101;28;20559;-56
2022/08/17 02:48:18;;;;;;;5.97;4.03;;;;;;;23.73;66.22;97729.78;5092308;28;20203;-56
2022/08/17 02:50:43;;;;;;;6.63;3.92;;;;;;;23.80;66.38;97743.81;5092076;28;20237;-56
2022/08/17 02:53:09;;;;;;;4.85;4.35;;;;;;;23.77;66.76;97741.59;5091873;28;20566;-56
2022/08/17 02:55:38;;;;;;;8.82;4.72;;;;;;;23.73;67.25;97737.72;5092013;28;20176;-56
2022/08/17 02:58:04;;;;;;;4.63;4.10;;;;;;;23.72;66.90;97739.75;5092022;28;20183;-58
2022/08/17 03:00:33;;;;;;;6.35;4.30;;;;;;;23.69;67.39;97752.34;5091979;28;20176;-56
2022/08/17 03:03:00;;;;;;;5.93;4.22;;;;;;;23.69;67.85;97744.41;5092523;28;20680;-57
2022/08/17 03:05:28;;;;;;;5.90;4.13;;;;;;;23.66;67.81;97746.66;5091957;28;20172;-57
2022/08/17 03:07:54;;;;;;;5.38;4.47;;;;;;;23.58;68.53;97752.16;5092396;28;20195;-57
2022/08/17 03:10:20;;;;;;;4.65;4.05;;;;;;;23.47;68.88;97744.00;5092225;28;20171;-57
2022/08/17 03:12:46;;;;;;;8.38;4.80;;;;;;;23.45;68.96;97746.84;5092181;28;20201;-57
2022/08/17 03:15:24;;;;;;;6.35;3.78;;;;;;;23.35;69.71;97740.31;5091906;28;20222;-57
2022/08/17 03:17:51;;;;;;;5.00;3.90;;;;;;;23.29;69.74;97752.50;5092154;28;20164;-56
2022/08/17 03:20:17;;;;;;;8.45;4.30;;;;;;;23.26;70.07;97738.91;5092006;28;20233;-57
2022/08/17 03:22:45;;;;;;;4.68;4.28;;;;;;;23.32;69.80;97757.38;5091807;28;20266;-57
2022/08/17 03:25:14;;;;;;;7.68;5.18;;;;;;;23.30;69.89;97753.34;5091768;28;20172;-57
2022/08/17 03:27:40;;;;;;;4.85;4.07;;;;;;;23.39;69.29;97750.31;5091701;28;20194;-57
2022/08/17 03:30:07;;;;;;;5.07;4.50;;;;;;;23.34;69.33;97754.53;5091776;28;20168;-57
2022/08/17 03:32:38;;;;;;;4.93;4.43;;;;;;;23.30;69.50;97748.06;5091905;28;20198;-57
2022/08/17 03:35:04;;;;;;;9.32;4.78;;;;;;;23.28;69.58;97760.63;5091675;28;20164;-57
2022/08/17 03:37:29;;;;;;;5.80;3.78;;;;;;;23.15;69.59;97758.75;5091711;28;20259;-57
2022/08/17 03:39:55;;;;;;;5.03;4.15;;;;;;;23.26;69.14;97746.81;5092206;28;20610;-57
2022/08/17 03:42:23;;;;;;;5.97;4.20;;;;;;;23.38;68.41;97766.34;5091903;28;20634;-57
2022/08/17 03:44:49;;;;;;;5.97;4.22;;;;;;;23.42;68.76;97757.00;5091813;28;20198;-57
2022/08/17 03:58:36;;;;;;;5.57;4.50;;;;;;;23.01;70.84;97758.91;5074070;28;20190;-57
2022/08/17 04:01:03;;;;;;;6.45;4.93;;;;;;;23.01;70.75;97769.47;5096152;28;20307;-57
2022/08/17 04:03:29;;;;;;;7.75;4.43;;;;;;;23.04;70.59;97769.88;5095318;28;20187;-57
2022/08/17 04:05:54;;;;;;;4.82;4.13;;;;;;;23.12;70.52;97772.34;5095005;28;20171;-58
2022/08/17 04:08:20;;;;;;;6.78;4.25;;;;;;;23.15;69.91;97777.25;5094953;28;20275;-58
2022/08/17 04:10:45;;;;;;;5.82;4.43;;;;;;;23.12;69.50;97772.34;5094939;28;20662;-58
2022/08/17 04:13:11;;;;;;;7.88;4.70;;;;;;;23.21;69.80;97786.19;5095167;28;20175;-58
2022/08/17 04:15:37;;;;;;;5.13;4.05;;;;;;;23.20;69.83;97779.31;5094836;28;20741;-58
2022/08/17 04:18:02;;;;;;;4.97;4.18;;;;;;;23.17;69.29;97764.69;5094939;28;20172;-58
2022/08/17 04:20:28;;;;;;;5.50;4.10;;;;;;;23.23;68.45;97774.44;5094695;28;20176;-58
2022/08/17 04:22:58;;;;;;;5.63;4.20;;;;;;;23.19;67.19;97756.56;5094705;28;20175;-58
2022/08/17 04:25:26;;;;;;;5.35;4.20;;;;;;;23.58;66.58;97783.03;5095201;28;20229;-58
2022/08/17 04:27:52;;;;;;;4.45;3.70;;;;;;;23.68;65.77;97785.06;5094471;28;20203;-57
2022/08/17 04:30:17;;;;;;;5.93;3.75;;;;;;;23.85;64.95;97796.88;5094845;28;20605;-57
2022/08/17 04:32:51;;;;;;;4.60;3.80;;;;;;;23.94;65.42;97794.06;5094500;28;20171;-57
2022/08/17 04:35:19;;;;;;;5.90;3.80;;;;;;;23.95;64.60;97790.41;5094709;28;20274;-57
2022/08/17 04:37:44;;;;;;;6.03;3.95;;;;;;;23.94;65.50;97780.84;5094382;28;20649;-57
2022/08/17 04:43:06;;;;;;;4.45;4.05;;;;;;;23.89;65.61;97807.06;5094846;28;20162;-57
2022/08/17 04:45:32;;;;;;;4.78;4.28;;;;;;;23.86;66.33;97803.78;5094593;28;20156;-57
2022/08/17 04:47:57;;;;;;;3.97;3.65;;;;;;;23.91;66.01;97810.31;5094384;28;20199;-58
2022/08/17 04:50:23;;;;;;;4.45;4.05;;;;;;;23.65;66.62;97770.66;5094457;28;20164;-57
2022/08/17 04:52:49;;;;;;;8.45;4.40;;;;;;;23.83;67.28;97803.38;5093998;28;20688;-57
2022/08/17 04:55:15;;;;;;;4.50;4.10;;;;;;;23.89;67.40;97801.78;5094297;28;20579;-58
2022/08/17 04:57:40;;;;;;;4.32;3.83;;;;;;;23.96;65.61;97805.25;5093697;28;20184;-58
2022/08/17 05:00:07;;;;;;;6.70;5.00;;;;;;;23.92;66.95;97798.72;5093987;28;20171;-57
2022/08/17 05:02:33;;;;;;;5.97;4.65;;;;;;;24.02;66.29;97807.91;5092947;28;20192;-58
2022/08/17 05:04:58;;;;;;;5.75;4.47;;;;;;;24.07;66.15;97796.69;5093866;28;20250;-58
2022/08/17 05:07:23;;;;;;;6.18;4.18;;;;;;;24.09;65.78;97804.22;5094053;28;20176;-59
2022/08/17 05:09:49;;;;;;;7.28;4.05;;;;;;;24.22;65.52;97800.75;5093708;28;20231;-59
2022/08/17 05:12:15;;;;;;;6.22;4.32;;;;;;;24.27;64.84;97807.03;5093737;28;20213;-58
2022/08/17 05:14:40;;;;;;;5.55;4.00;;;;;;;24.26;65.27;97800.13;5093694;28;20675;-57
2022/08/17 05:17:06;;;;;;;4.47;4.07;;;;;;;24.17;65.35;97795.25;5075883;28;20610;-58
2022/08/17 05:19:31;;;;;;;4.82;4.43;;;;;;;24.30;65.61;97801.34;5093547;28;20664;-57
2022/08/17 05:21:56;;;;;;;6.85;4.03;;;;;;;24.26;65.51;97805.41;5093570;28;20175;-58
2022/08/17 05:24:22;;;;;;;4.60;4.15;;;;;;;24.31;65.26;97802.97;5093529;28;20171;-58
2022/08/17 05:26:47;;;;;;;5.45;4.13;;;;;;;24.39;65.83;97810.69;5093412;28;20211;-58
2022/08/17 05:29:12;;;;;;;5.78;4.40;;;;;;;24.54;65.29;97819.22;5093390;28;20191;-58
2022/08/17 05:31:38;;;;;;;4.93;4.15;;;;;;;24.61;64.52;97820.03;5093558;28;20172;-58
2022/08/17 05:34:03;;;;;;;4.63;3.90;;;;;;;24.70;64.90;97817.97;5093579;28;20172;-58
2022/08/17 05:36:29;;;;;;;7.05;4.65;;;;;;;24.78;65.31;97823.84;5093314;28;20214;-58
2022/08/17 05:38:54;;;;;;;5.60;4.15;;;;;;;24.89;64.74;97825.03;5093219;28;20224;-58
2022/08/17 05:41:20;;;;;;;8.65;3.70;;;;;;;24.91;64.51;97826.47;5093141;28;20171;-58
2022/08/17 05:43:45;;;;;;;7.10;3.83;;;;;;;24.97;64.01;97836.22;5093129;28;20170;-57
2022/08/17 05:46:15;;;;;;;7.22;4.57;;;;;;;25.06;63.74;97828.84;5093609;28;20168;-57
2022/08/17 05:48:47;;;;;;;5.40;4.80;;;;;;;25.11;63.82;97832.50;5093536;28;20191;-58
2022/08/17 05:51:24;;;;;;;8.50;4.65;;;;;;;25.09;63.96;97836.38;5092849;28;20206;-57
2022/08/17 05:54:01;;;;;;;6.53;4.35;;;;;;;25.10;64.41;97846.78;5093199;28;20215;-58
2022/08/17 05:56:42;;;;;;;3.80;3.45;;;;;;;25.18;63.64;97833.28;5093213;28;20174;-57
2022/08/17 05:59:33;;;;;;;4.93;4.20;;;;;;;25.25;62.96;97834.09;5092852;28;20171;-58
2022/08/17 06:02:49;;;;;;;4.78;4.22;;;;;;;25.43;62.90;97828.91;5093383;28;20164;-57
2022/08/17 06:05:49;;;;;;;4.80;3.92;;;;;;;25.60;62.54;97840.63;5093086;28;20629;-58
2022/08/17 06:08:38;;;;;;;4.47;4.13;;;;;;;25.77;62.01;97838.31;5092908;28;20271;-58
2022/08/17 06:11:23;;;;;;;5.93;3.97;;;;;;;25.85;62.43;97838.03;5093463;28;20247;-58
2022/08/17 06:14:12;;;;;;;4.60;4.10;;;;;;;25.94;62.18;97831.47;5092489;28;20170;-58
2022/08/17 06:16:45;;;;;;;4.60;4.20;;;;;;;26.14;61.52;97838.25;5092625;28;20156;-57
2022/08/17 06:19:17;;;;;;;9.85;4.57;;;;;;;26.25;60.83;97826.91;5092504;28;20179;-58
2022/08/17 06:21:47;;;;;;;5.70;4.18;;;;;;;26.46;59.02;97834.47;5092666;28;20160;-58
2022/08/17 06:24:18;;;;;;;5.75;3.58;;;;;;;26.68;58.13;97841.03;5091989;28;20661;-58
2022/08/17 06:26:45;;;;;;;7.25;4.68;;;;;;;26.75;57.73;97841.78;5091425;28;20238;-58
2022/08/17 06:29:16;;;;;;;6.57;4.65;;;;;;;26.86;57.61;97840.22;5090528;28;20199;-58
2022/08/17 06:31:42;;;;;;;19.30;6.35;;;;;;;26.99;57.12;97845.41;5091840;28;20214;-58
2022/08/17 06:34:11;;;;;;;9.43;4.40;;;;;;;27.10;56.40;97842.81;5092334;28;20195;-58
2022/08/17 06:36:58;;;;;;;13.65;4.45;;;;;;;27.08;56.19;97850.19;5092304;28;20171;-58
2022/08/17 06:39:54;;;;;;;4.85;4.00;;;;;;;27.13;56.16;97850.34;5092262;28;20168;-58
2022/08/17 06:42:46;;;;;;;5.05;4.30;;;;;;;27.24;55.59;97849.59;5092804;28;20159;-57
2022/08/17 06:45:20;;;;;;;4.75;4.10;;;;;;;27.26;55.41;97847.56;5092677;28;20165;-58
2022/08/17 06:48:01;;;;;;;4.97;4.50;;;;;;;27.33;55.11;97839.47;5092128;28;20565;-58
2022/08/17 06:50:33;;;;;;;6.88;4.40;;;;;;;27.24;55.38;97843.50;5092485;28;20726;-57
2022/08/17 06:53:11;;;;;;;5.10;4.15;;;;;;;27.20;55.39;97848.44;5092021;28;20276;-58
2022/08/17 06:55:47;;;;;;;5.25;4.60;;;;;;;27.27;55.34;97845.69;5092365;28;20159;-58
2022/08/17 06:58:19;;;;;;;5.65;4.30;;;;;;;27.24;55.03;97841.63;5092631;28;20527;-58
2022/08/17 07:00:47;;;;;;;4.20;3.80;;;;;;;27.32;55.27;97841.34;5092085;28;20156;-58
2022/08/17 07:03:53;;;;;;;6.50;4.13;;;;;;;27.49;54.87;97838.84;5092000;28;20663;-58
2022/08/17 07:06:26;;;;;;;4.55;3.90;;;;;;;27.54;54.64;97837.16;5092967;28;20262;-58
2022/08/17 07:09:12;;;;;;;6.28;4.15;;;;;;;27.64;54.75;97840.06;5091873;28;20190;-59
2022/08/17 07:11:56;;;;;;;7.10;4.05;;;;;;;27.68;54.21;97835.94;5092252;28;20156;-56
2022/08/17 07:14:42;;;;;;;4.00;3.55;;;;;;;27.75;53.51;97841.97;5091964;28;20268;-57
2022/08/17 07:17:12;;;;;;;4.70;4.20;;;;;;;27.70;53.18;97801.94;5092464;28;20232;-57
2022/08/17 07:19:44;;;;;;;7.40;4.85;;;;;;;27.93;53.00;97841.91;5091757;28;20180;-57
2022/08/17 07:22:29;;;;;;;4.07;3.78;;;;;;;28.05;51.66;97836.63;5092088;28;20160;-57
2022/08/17 07:25:01;;;;;;;5.78;4.43;;;;;;;28.15;51.77;97848.31;5093638;28;20622;-57
2022/08/17 07:27:30;;;;;;;4.22;3.88;;;;;;;28.24;51.53;97840.81;5095818;28;20167;-57
2022/08/17 07:30:15;;;;;;;5.57;3.83;;;;;;;28.39;49.63;97842.00;5095765;28;20176;-57
2022/08/17 07:32:47;;;;;;;4.00;3.67;;;;;;;28.54;48.60;97852.19;5095915;28;20225;-57
2022/08/17 07:35:27;;;;;;;4.35;3.70;;;;;;;28.63;45.86;97853.47;5095976;28;20172;-57
2022/08/17 07:38:16;;;;;;;3.55;3.25;;;;;;;28.80;44.25;97846.41;5095518;28;20186;-57
2022/08/17 07:40:43;;;;;;;4.03;3.63;;;;;;;28.96;44.05;97854.50;5095820;28;20596;-57
2022/08/17 07:43:15;;;;;;;4.60;3.95;;;;;;;29.17;42.33;97850.41;5095348;28;20274;-57
2022/08/17 07:48:40;;;;;;;4.72;3.80;;;;;;;29.49;41.54;97860.38;5095538;28;20194;-57
2022/08/17 07:51:28;;;;;;;7.65;3.67;;;;;;;29.57;41.63;97852.03;5095622;28;20176;-57
2022/08/17 07:54:21;;;;;;;10.70;4.00;;;;;;;29.69;40.79;97852.81;5095811;28;20195;-57
2022/08/17 07:56:52;;;;;;;5.13;3.72;;;;;;;29.79;41.21;97852.97;5084109;28;20202;-57
2022/08/17 07:59:35;;;;;;;3.50;3.20;;;;;;;29.92;39.86;97847.38;5095662;28;20339;-58
2022/08/17 08:02:14;;;;;;;3.80;3.47;;;;;;;30.01;39.99;97853.09;5095715;28;20166;-58
2022/08/17 08:05:07;;;;;;;8.63;3.90;;;;;;;30.05;40.17;97846.22;5076919;28;20180;-58
2022/08/17 08:07:50;;;;;;;7.00;3.65;;;;;;;30.11;40.31;97850.63;5095249;28;20601;-59
2022/08/17 08:10:31;;;;;;;5.13;3.72;;;;;;;30.13;39.00;97838.66;5095581;28;20164;-58
2022/08/17 08:13:12;;;;;;;4.40;3.72;;;;;;;30.25;38.69;97843.94;5095257;28;20168;-58
2022/08/17 08:15:48;;;;;;;7.38;3.85;;;;;;;30.29;39.32;97845.88;5094876;28;20183;-58
2022/08/17 08:18:25;;;;;;;4.63;4.00;;;;;;;30.33;40.26;97832.84;5094894;28;20162;-58
2022/08/17 08:20:59;;;;;;;3.92;3.63;;;;;;;30.42;39.21;97832.19;5094854;28;20163;-58
2022/08/17 08:23:33;;;;;;;4.15;3.80;;;;;;;30.51;39.58;97835.25;5094999;28;20186;-58
2022/08/17 08:26:21;;;;;;;4.18;3.70;;;;;;;30.55;38.39;97853.19;5094957;28;20617;-58
2022/08/17 08:29:03;;;;;;;5.93;4.10;;;;;;;30.54;37.96;97846.25;5094820;28;20207;-56
2022/08/17 08:31:39;;;;;;;5.45;3.85;;;;;;;30.50;38.76;97838.97;5094518;28;20207;-57
2022/08/17 08:34:43;;;;;;;7.35;3.53;;;;;;;30.61;38.86;97841.53;5094567;28;20647;-57
2022/08/17 08:37:29;;;;;;;5.75;3.72;;;;;;;30.69;38.91;97838.50;5094319;28;20701;-56
2022/08/17 08:40:11;;;;;;;4.10;3.72;;;;;;;30.55;37.88;97815.81;5094322;28;20180;-57
2022/08/17 08:42:51;;;;;;;3.85;3.53;;;;;;;30.75;38.08;97832.16;5094680;28;20195;-57
2022/08/17 08:45:37;;;;;;;5.78;4.20;;;;;;;30.84;37.62;97832.53;5094269;28;20384;-57
2022/08/17 08:48:27;;;;;;;3.83;3.47;;;;;;;30.89;37.92;97828.06;5094466;28;20265;-57
2022/08/17 08:51:18;;;;;;;6.47;4.00;;;;;;;30.94;37.65;97833.47;5094508;28;20164;-57
2022/08/17 08:53:55;;;;;;;8.45;4.10;;;;;;;31.01;37.06;97825.28;5094162;28;20282;-57
2022/08/17 08:56:38;;;;;;;6.10;4.18;;;;;;;31.03;37.53;97823.97;5094040;28;20550;-58
2022/08/17 08:59:23;;;;;;;7.07;4.25;;;;;;;31.02;38.06;97830.34;5094551;28;20210;-57
2022/08/17 09:02:10;;;;;;;4.40;4.00;;;;;;;30.99;35.42;97828.19;5094269;28;20206;-58
2022/08/17 09:05:13;;;;;;;6.32;3.90;;;;;;;31.00;35.35;97837.00;5094224;28;20175;-57
2022/08/17 09:07:57;;;;;;;4.15;3.70;;;;;;;31.04;36.21;97830.13;5094030;28;20171;-59
2022/08/17 09:10:25;;;;;;;5.30;3.42;;;;;;;31.11;35.26;97836.91;5094138;28;20241;-58
2022/08/17 09:12:56;;;;;;;4.85;4.35;;;;;;;31.17;35.17;97835.91;5094059;28;20182;-58
2022/08/17 09:15:26;;;;;;;4.25;3.85;;;;;;;31.22;34.08;97848.56;5093742;28;20167;-57
2022/08/17 09:18:14;;;;;;;5.35;3.35;;;;;;;31.19;33.91;97841.84;5093991;28;20614;-57
2022/08/17 09:20:55;;;;;;;3.58;3.28;;;;;;;31.18;34.79;97826.84;5093865;28;20164;-59
2022/08/17 09:23:36;;;;;;;5.20;3.80;;;;;;;31.23;34.67;97828.78;5093598;28;20182;-57
2022/08/17 09:26:21;;;;;;;4.32;3.92;;;;;;;31.25;34.41;97824.78;5094093;28;20168;-56
2022/08/17 09:28:51;;;;;;;4.03;3.70;;;;;;;31.33;33.95;97835.06;5093689;28;20255;-57
2022/08/17 09:31:27;;;;;;;5.10;3.40;;;;;;;31.36;32.72;97828.41;5093684;28;20171;-58
2022/08/17 09:33:57;;;;;;;5.53;3.17;;;;;;;31.26;33.24;97809.56;5093672;28;20156;-57
2022/08/17 09:36:39;;;;;;;6.07;3.10;;;;;;;31.45;33.50;97822.34;5093580;28;20202;-57
2022/08/17 09:40:04;;;;;;;3.38;3.08;;;;;;;31.46;31.59;97829.31;5093563;28;20163;-57
2022/08/17 09:42:39;;;;;;;3.53;3.22;;;;;;;31.41;32.61;97818.56;4992267;28;20207;-57
2022/08/17 09:45:23;;;;;;;4.03;3.00;;;;;;;31.47;32.20;97819.44;5093149;28;20167;-57
2022/08/17 09:47:56;;;;;;;3.20;2.97;;;;;;;31.52;32.62;97812.25;5092797;28;20233;-58
2022/08/17 09:50:48;;;;;;;4.90;2.90;;;;;;;31.61;32.78;97826.00;5093341;28;20545;-58
2022/08/17 09:53:14;;;;;;;3.08;2.88;;;;;;;31.74;32.27;97822.94;5054989;28;20250;-58
2022/08/17 09:56:07;;;;;;;4.47;3.40;;;;;;;31.81;32.53;97824.34;5093197;28;20176;-58
2022/08/17 09:58:39;;;;;;;3.38;3.05;;;;;;;31.87;32.47;97820.66;5093243;28;20176;-59
2022/08/17 10:01:36;;;;;;;4.35;3.25;;;;;;;31.90;33.08;97820.16;5092905;28;20156;-59
2022/08/17 10:04:07;;;;;;;3.85;3.25;;;;;;;31.96;32.12;97818.34;5093137;28;20166;-58
2022/08/17 10:06:48;;;;;;;4.50;2.92;;;;;;;32.03;31.70;97816.25;5093003;28;20637;-58
2022/08/17 10:09:42;;;;;;;3.63;3.17;;;;;;;32.02;31.69;97818.13;5092611;28;20198;-59
2022/08/17 10:12:30;;;;;;;3.70;2.80;;;;;;;32.15;30.63;97812.34;5093223;28;20160;-59
2022/08/17 10:15:13;;;;;;;3.60;3.10;;;;;;;32.26;30.57;97819.41;5093234;28;20156;-59
2022/08/17 10:17:54;;;;;;;5.80;2.85;;;;;;;32.39;30.62;97816.28;5093168;28;20170;-59
2022/08/17 10:20:24;;;;;;;3.15;2.88;;;;;;;32.48;30.63;97820.13;5092782;28;20171;-58
2022/08/17 10:28:35;;;;;;;5.63;3.45;;;;;;;32.77;30.76;97799.91;5093166;28;20644;-59
2022/08/17 10:31:04;;;;;;;4.40;3.17;;;;;;;32.98;31.59;97809.69;5092400;28;20168;-59
2022/08/17 10:33:44;;;;;;;4.95;3.20;;;;;;;33.02;29.95;97801.91;5092359;28;20184;-59
2022/08/17 10:36:22;;;;;;;5.97;2.97;;;;;;;33.16;30.58;97797.69;5092674;28;20167;-59
2022/08/17 10:39:29;;;;;;;5.05;3.00;;;;;;;33.13;30.27;97806.25;5092388;28;20198;-59
2022/08/17 10:42:01;;;;;;;4.13;2.70;;;;;;;33.05;30.01;97798.72;5070754;28;20195;-58
2022/08/17 10:44:55;;;;;;;3.30;2.97;;;;;;;33.15;30.44;97798.75;5092367;28;20168;-58
2022/08/17 10:47:25;;;;;;;4.38;2.65;;;;;;;33.35;30.20;97799.63;5092458;28;20166;-58
2022/08/17 10:49:55;;;;;;;3.53;3.05;;;;;;;33.52;29.79;97791.38;5092051;28;20191;-58
2022/08/17 10:52:26;;;;;;;5.43;2.85;;;;;;;33.77;29.24;97797.63;5091992;28;20622;-58
2022/08/17 10:55:01;;;;;;;3.47;3.03;;;;;;;33.92;29.56;97786.88;5092072;28;20179;-58
2022/08/17 10:57:29;;;;;;;4.50;2.83;;;;;;;34.08;29.18;97785.81;5092108;28;20615;-58
2022/08/17 10:59:56;;;;;;;3.30;3.00;;;;;;;34.26;29.28;97787.97;5093649;28;20176;-58
2022/08/17 11:02:26;;;;;;;3.15;2.70;;;;;;;34.47;29.21;97770.75;5096830;28;20189;-59
2022/08/17 11:05:05;;;;;;;2.95;2.53;;;;;;;34.65;29.51;97780.91;5096545;28;20164;-58
2022/08/17 11:07:45;;;;;;;3.33;3.03;;;;;;;34.83;28.03;97790.28;5096406;28;20151;-58
2022/08/17 11:10:14;;;;;;;3.20;2.90;;;;;;;34.99;26.81;97792.66;5096372;28;20218;-59
2022/08/17 11:13:09;;;;;;;4.07;2.88;;;;;;;35.03;26.30;97785.63;5096329;28;20183;-58
2022/08/17 11:15:44;;;;;;;3.17;2.38;;;;;;;35.11;26.18;97790.44;5096126;28;20171;-58
2022/08/17 11:18:49;;;;;;;3.70;2.65;;;;;;;34.96;25.07;97782.44;5095707;28;20186;-58
2022/08/17 11:21:37;;;;;;;6.18;2.67;;;;;;;35.03;25.79;97776.78;5013455;28;20186;-58
2022/08/17 11:24:22;;;;;;;3.33;2.40;;;;;;;35.22;26.08;97773.19;5096163;28;20179;-58
2022/08/17 11:27:07;;;;;;;2.90;2.60;;;;;;;35.37;25.21;97778.50;5095882;28;20234;-58
2022/08/17 11:29:52;;;;;;;2.60;2.40;;;;;;;35.51;25.61;97767.91;5095972;28;20203;-58
2022/08/17 11:32:26;;;;;;;2.72;2.42;;;;;;;35.62;23.63;97769.47;5095971;28;20164;-58
2022/08/17 11:35:10;;;;;;;4.05;2.95;;;;;;;35.68;23.90;97769.16;5095679;28;20172;-58
2022/08/17 11:37:44;;;;;;;2.53;2.30;;;;;;;35.81;25.02;97763.16;5095896;28;20166;-58
2022/08/17 11:40:32;;;;;;;5.30;2.17;;;;;;;35.92;24.80;97764.69;5095703;28;20160;-58
2022/08/17 11:43:06;;;;;;;3.72;2.58;;;;;;;35.97;25.02;97771.91;5048229;28;20617;-59
2022/08/17 11:45:35;;;;;;;3.78;2.63;;;;;;;36.09;25.44;97758.88;5095737;28;20172;-58
2022/08/17 11:51:34;;;;;;;3.53;2.53;;;;;;;36.34;24.96;97755.97;5095980;28;20160;-59
2022/08/17 11:54:09;;;;;;;4.60;2.55;;;;;;;36.23;23.19;97762.53;5095573;28;20200;-59
2022/08/17 11:56:39;;;;;;;3.00;2.03;;;;;;;36.14;22.74;97767.69;5095214;28;20160;-59
2022/08/17 11:59:43;;;;;;;2.55;2.28;;;;;;;36.17;22.34;97764.47;5095456;28;20167;-59
2022/08/17 12:02:29;;;;;;;2.33;2.20;;;;;;;36.41;22.46;97765.31;5056633;28;20183;-59
2022/08/17 12:05:13;;;;;;;3.17;2.13;;;;;;;36.54;22.07;97759.25;5095875;28;20171;-59
2022/08/17 12:08:03;;;;;;;4.05;2.22;;;;;;;36.73;22.23;97753.94;5095240;28;20179;-59
2022/08/17 12:10:31;;;;;;;4.18;2.20;;;;;;;36.83;21.18;97760.00;5094810;28;20269;-59
2022/08/17 12:13:02;;;;;;;3.42;2.25;;;;;;;36.91;21.21;97754.00;5094917;28;20644;-59
2022/08/17 12:15:38;;;;;;;2.95;2.20;;;;;;;37.13;21.29;97756.94;5094965;28;20175;-59
2022/08/17 12:18:04;;;;;;;5.85;2.58;;;;;;;37.13;22.07;97727.25;5095457;28;20637;-59
2022/08/17 12:20:35;;;;;;;6.95;2.35;;;;;;;37.43;21.92;97743.06;5095055;28;20256;-59
2022/08/17 12:23:24;;;;;;;2.58;2.25;;;;;;;37.48;21.37;97734.84;5094761;28;20220;-58
2022/08/17 12:25:56;;;;;;;5.60;2.17;;;;;;;37.70;21.91;97740.47;5094991;28;20178;-58
2022/08/17 12:28:30;;;;;;;5.43;2.40;;;;;;;37.81;21.12;97739.22;5094624;28;20259;-59
2022/08/17 12:31:10;;;;;;;7.88;2.25;;;;;;;37.97;20.52;97742.47;5094656;28;20171;-59